Time;durP1;ratioP1;P1;durP2;ratioP2;P2;SDS_P1;SDS_P2;PMS_P1;PMS_P2;Temp;Humidity;BMP_temperature;BMP_pressure;BME280_temperature;BME280_humidity;BME280_pressure;Samples;Min_cycle;Max_cycle;Signal;HPM_P1;HPM_P2
2020/12/24 00:00:48;;;;;;;;;;;;;;;;;;5031058;28;20302;-70
2020/12/24 00:03:14;;;;;;;;;;;;;;;;;;5025196;28;19948;-69
2020/12/24 00:05:41;;;;;;;;;;;;;;;;;;5028029;28;19925;-69
2020/12/24 00:08:07;;;;;;;;;;;;;;;;;;5021152;28;19933;-70
2020/12/24 00:10:34;;;;;;;;;;;;;;;;;;5029362;28;20019;-70
2020/12/24 00:13:00;;;;;;;;;;;;;;;;;;5023539;28;19925;-69
2020/12/24 00:15:27;;;;;;;;;;;;;;;;;;5021202;28;19925;-68
2020/12/24 00:17:53;;;;;;;;;;;;;;;;;;5028519;28;19925;-69
2020/12/24 00:20:20;;;;;;;;;;;;;;;;;;5027712;28;19926;-69
2020/12/24 00:22:46;;;;;;;;;;;;;;;;;;5030308;28;19987;-69
2020/12/24 00:25:13;;;;;;;;;;;;;;;;;;5031212;28;20015;-69
2020/12/24 00:27:39;;;;;;;;;;;;;;;;;;5030203;28;19931;-68
2020/12/24 00:30:06;;;;;;;;;;;;;;;;;;5031478;28;19941;-69
2020/12/24 00:32:32;;;;;;;;;;;;;;;;;;5029496;28;19933;-69
2020/12/24 00:34:59;;;;;;;;;;;;;;;;;;5029025;28;19933;-69
2020/12/24 00:37:25;;;;;;;;;;;;;;;;;;5030381;28;19940;-70
2020/12/24 00:39:52;;;;;;;;;;;;;;;;;;5029049;28;20402;-69
2020/12/24 00:42:18;;;;;;;;;;;;;;;;;;5028103;28;19929;-70
2020/12/24 00:44:45;;;;;;;;;;;;;;;;;;5031110;28;20426;-70
2020/12/24 00:47:11;;;;;;;;;;;;;;;;;;5027073;28;19933;-69
2020/12/24 00:49:37;;;;;;;;;;;;;;;;;;5029158;28;20262;-69
2020/12/24 00:52:04;;;;;;;;;;;;;;;;;;5028100;28;19925;-70
2020/12/24 00:54:30;;;;;;;;;;;;;;;;;;5023574;28;19948;-69
2020/12/24 00:56:58;;;;;;;;;;;;;;;;;;5024242;28;20028;-69
2020/12/24 00:59:24;;;;;;;;;;;;;;;;;;5026369;28;19925;-70
2020/12/24 01:01:51;;;;;;;;;;;;;;;;;;5027294;28;19925;-69
2020/12/24 01:04:17;;;;;;;;;;;;;;;;;;5027696;28;19925;-70
2020/12/24 01:06:44;;;;;;;;;;;;;;;;;;5023368;28;20438;-69
2020/12/24 01:09:10;;;;;;;;;;;;;;;;;;5030343;28;20012;-68
2020/12/24 01:11:37;;;;;;;;;;;;;;;;;;5029244;28;20290;-69
2020/12/24 01:14:03;;;;;;;;;;;;;;;;;;5028804;28;19925;-69
2020/12/24 01:16:29;;;;;;;;;;;;;;;;;;5029145;28;19925;-69
2020/12/24 01:18:56;;;;;;;;;;;;;;;;;;5029466;28;19931;-70
2020/12/24 01:21:22;;;;;;;;;;;;;;;;;;5029601;28;19939;-68
2020/12/24 01:23:49;;;;;;;;;;;;;;;;;;5029026;28;19970;-69
2020/12/24 01:26:15;;;;;;;;;;;;;;;;;;5026349;28;20041;-70
2020/12/24 01:28:42;;;;;;;;;;;;;;;;;;5025839;28;19929;-70
2020/12/24 01:31:08;;;;;;;;;;;;;;;;;;5026754;28;19974;-69
2020/12/24 01:33:35;;;;;;;;;;;;;;;;;;5027347;28;19970;-69
2020/12/24 01:36:01;;;;;;;;;;;;;;;;;;5026777;28;19925;-68
2020/12/24 01:38:28;;;;;;;;;;;;;;;;;;5024692;28;19929;-69
2020/12/24 01:40:54;;;;;;;;;;;;;;;;;;5029402;28;19925;-69
2020/12/24 01:43:21;;;;;;;;;;;;;;;;;;5029079;28;19931;-69
2020/12/24 01:45:47;;;;;;;;;;;;;;;;;;5030596;28;19932;-70
2020/12/24 01:48:14;;;;;;;;;;;;;;;;;;5029211;28;19999;-68
2020/12/24 01:50:40;;;;;;;;;;;;;;;;;;5029298;28;19972;-70
2020/12/24 01:53:07;;;;;;;;;;;;;;;;;;5025030;28;19929;-70
2020/12/24 01:55:33;;;;;;;;;;;;;;;;;;5028036;28;20007;-69
2020/12/24 01:58:00;;;;;;;;;;;;;;;;;;5022628;28;19925;-70
2020/12/24 02:00:26;;;;;;;;;;;;;;;;;;5027521;28;20011;-70
2020/12/24 02:02:53;;;;;;;;;;;;;;;;;;5030832;28;20383;-69
2020/12/24 02:05:19;;;;;;;;;;;;;;;;;;5029995;28;19933;-70
2020/12/24 02:07:46;;;;;;;;;;;;;;;;;;5023111;28;20380;-69
2020/12/24 02:10:12;;;;;;;;;;;;;;;;;;5029318;28;19925;-69
2020/12/24 02:12:39;;;;;;;;;;;;;;;;;;5031120;28;19984;-69
2020/12/24 02:15:05;;;;;;;;;;;;;;;;;;5021190;28;19929;-69
2020/12/24 02:17:32;;;;;;;;;;;;;;;;;;5025655;28;19932;-69
2020/12/24 02:19:58;;;;;;;;;;;;;;;;;;5028692;28;19933;-69
2020/12/24 02:22:25;;;;;;;;;;;;;;;;;;5026825;28;20402;-69
2020/12/24 02:24:51;;;;;;;;;;;;;;;;;;5031399;28;19925;-70
2020/12/24 02:27:18;;;;;;;;;;;;;;;;;;5027035;28;19929;-68
2020/12/24 02:29:44;;;;;;;;;;;;;;;;;;5028424;28;20375;-69
2020/12/24 02:32:11;;;;;;;;;;;;;;;;;;5025183;28;20071;-69
2020/12/24 02:34:37;;;;;;;;;;;;;;;;;;5030264;28;19932;-69
2020/12/24 02:37:06;;;;;;;;;;;;;;;;;;5029757;28;19925;-69
2020/12/24 02:39:33;;;;;;;;;;;;;;;;;;5025948;28;19932;-69
2020/12/24 02:41:59;;;;;;;;;;;;;;;;;;5030837;28;19925;-69
2020/12/24 02:44:25;;;;;;;;;;;;;;;;;;5026939;28;20378;-70
2020/12/24 02:46:52;;;;;;;;;;;;;;;;;;5029868;28;19954;-70
2020/12/24 02:49:18;;;;;;;;;;;;;;;;;;5028702;28;20409;-68
2020/12/24 02:51:45;;;;;;;;;;;;;;;;;;5028810;28;19932;-67
2020/12/24 02:54:11;;;;;;;;;;;;;;;;;;5025429;28;19932;-69
2020/12/24 02:56:38;;;;;;;;;;;;;;;;;;5032648;28;19964;-68
2020/12/24 02:59:04;;;;;;;;;;;;;;;;;;5030740;28;19929;-69
2020/12/24 03:01:31;;;;;;;;;;;;;;;;;;5039477;28;19925;-69
2020/12/24 03:03:57;;;;;;;;;;;;;;;;;;5030007;28;20349;-69
2020/12/24 03:06:24;;;;;;;;;;;;;;;;;;5029527;28;19951;-69
2020/12/24 03:08:51;;;;;;;;;;;;;;;;;;5036245;28;19925;-68
2020/12/24 03:11:17;;;;;;;;;;;;;;;;;;5036438;28;20523;-69
2020/12/24 03:13:44;;;;;;;;;;;;;;;;;;5039469;28;19955;-69
2020/12/24 03:16:10;;;;;;;;;;;;;;;;;;5026748;28;20310;-69
2020/12/24 03:18:37;;;;;;;;;;;;;;;;;;5025797;28;19925;-70
2020/12/24 03:21:03;;;;;;;;;;;;;;;;;;5027102;28;19929;-68
2020/12/24 03:23:30;;;;;;;;;;;;;;;;;;5025739;28;19947;-70
2020/12/24 03:25:56;;;;;;;;;;;;;;;;;;5022672;28;19932;-70
2020/12/24 03:28:23;;;;;;;;;;;;;;;;;;5028959;28;20342;-69
2020/12/24 03:30:49;;;;;;;;;;;;;;;;;;5022626;28;20012;-69
2020/12/24 03:33:16;;;;;;;;;;;;;;;;;;5028383;28;19925;-69
2020/12/24 03:35:42;;;;;;;;;;;;;;;;;;5029158;28;19933;-69
2020/12/24 03:38:09;;;;;;;;;;;;;;;;;;5027148;28;20039;-69
2020/12/24 03:40:35;;;;;;;;;;;;;;;;;;5029661;28;19929;-69
2020/12/24 03:43:02;;;;;;;;;;;;;;;;;;5026414;28;19979;-69
2020/12/24 03:45:28;;;;;;;;;;;;;;;;;;5025834;28;19929;-70
2020/12/24 03:47:54;;;;;;;;;;;;;;;;;;5026247;28;20470;-69
2020/12/24 03:50:21;;;;;;;;;;;;;;;;;;5029441;28;19931;-69
2020/12/24 03:52:47;;;;;;;;;;;;;;;;;;5019549;28;19933;-69
2020/12/24 03:55:14;;;;;;;;;;;;;;;;;;5021540;28;19994;-69
2020/12/24 03:57:41;;;;;;;;;;;;;;;;;;5028060;28;19932;-69
2020/12/24 04:00:07;;;;;;;;;;;;;;;;;;5033189;28;19947;-69
2020/12/24 04:02:33;;;;;;;;;;;;;;;;;;5029753;28;19925;-70
2020/12/24 04:05:00;;;;;;;;;;;;;;;;;;5032015;28;20302;-69
2020/12/24 04:07:26;;;;;;;;;;;;;;;;;;5032162;28;19979;-70
2020/12/24 04:09:53;;;;;;;;;;;;;;;;;;5030309;28;19929;-69
2020/12/24 04:12:19;;;;;;;;;;;;;;;;;;5028308;28;20012;-69
2020/12/24 04:14:46;;;;;;;;;;;;;;;;;;5025825;28;19936;-69
2020/12/24 04:17:12;;;;;;;;;;;;;;;;;;5029993;28;19929;-69
2020/12/24 04:19:39;;;;;;;;;;;;;;;;;;5032143;28;20002;-69
2020/12/24 04:22:05;;;;;;;;;;;;;;;;;;5029242;28;19925;-70
2020/12/24 04:24:32;;;;;;;;;;;;;;;;;;5033242;28;19947;-69
2020/12/24 04:26:58;;;;;;;;;;;;;;;;;;5033285;28;19929;-69
2020/12/24 04:29:25;;;;;;;;;;;;;;;;;;5030623;28;19925;-69
2020/12/24 04:31:51;;;;;;;;;;;;;;;;;;5031583;28;19932;-69
2020/12/24 04:34:18;;;;;;;;;;;;;;;;;;5029049;28;19929;-69
2020/12/24 04:36:44;;;;;;;;;;;;;;;;;;5029638;28;19932;-69
2020/12/24 04:39:11;;;;;;;;;;;;;;;;;;5030024;28;19925;-68
2020/12/24 04:41:37;;;;;;;;;;;;;;;;;;5024970;28;19929;-68
2020/12/24 04:44:03;;;;;;;;;;;;;;;;;;5028520;28;19929;-68
2020/12/24 04:46:30;;;;;;;;;;;;;;;;;;5025495;28;19933;-68
2020/12/24 04:48:56;;;;;;;;;;;;;;;;;;5026878;28;19925;-68
2020/12/24 04:51:23;;;;;;;;;;;;;;;;;;5027950;28;19925;-68
2020/12/24 04:53:49;;;;;;;;;;;;;;;;;;5028171;28;19980;-69
2020/12/24 04:56:16;;;;;;;;;;;;;;;;;;5026344;28;19932;-69
2020/12/24 04:58:43;;;;;;;;;;;;;;;;;;5030973;28;19959;-68
2020/12/24 05:01:09;;;;;;;;;;;;;;;;;;5035634;22;19937;-66
2020/12/24 05:03:36;;;;;;;;;;;;;;;;;;5019059;28;19992;-66
2020/12/24 05:06:02;;;;;;;;;;;;;;;;;;5015793;28;19944;-66
2020/12/24 05:08:29;;;;;;;;;;;;;;;;;;5017444;28;19979;-67
2020/12/24 05:10:55;;;;;;;;;;;;;;;;;;5023273;28;19925;-67
2020/12/24 05:13:22;;;;;;;;;;;;;;;;;;5027338;28;19980;-67
2020/12/24 05:15:48;;;;;;;;;;;;;;;;;;5021090;28;20306;-67
2020/12/24 05:18:15;;;;;;;;;;;;;;;;;;5022186;28;19933;-66
2020/12/24 05:20:41;;;;;;;;;;;;;;;;;;5021989;28;20322;-67
2020/12/24 05:23:08;;;;;;;;;;;;;;;;;;5020812;28;19932;-66
2020/12/24 05:25:34;;;;;;;;;;;;;;;;;;5022743;28;19931;-67
2020/12/24 05:28:01;;;;;;;;;;;;;;;;;;5018025;28;19925;-66
2020/12/24 05:30:27;;;;;;;;;;;;;;;;;;5021537;28;19940;-67
2020/12/24 05:32:54;;;;;;;;;;;;;;;;;;5014395;28;19926;-66
2020/12/24 05:35:20;;;;;;;;;;;;;;;;;;5016243;28;19925;-68
2020/12/24 05:37:47;;;;;;;;;;;;;;;;;;5018608;28;20310;-68
2020/12/24 05:40:13;;;;;;;;;;;;;;;;;;5017112;28;19931;-67
2020/12/24 05:42:40;;;;;;;;;;;;;;;;;;5015476;28;20318;-66
2020/12/24 05:45:06;;;;;;;;;;;;;;;;;;5018472;28;19930;-68
2020/12/24 05:47:33;;;;;;;;;;;;;;;;;;5014777;28;19955;-67
2020/12/24 05:49:59;;;;;;;;;;;;;;;;;;5018929;28;19940;-67
2020/12/24 05:52:26;;;;;;;;;;;;;;;;;;5014573;28;20024;-68
2020/12/24 05:54:52;;;;;;;;;;;;;;;;;;5024817;28;20393;-67
2020/12/24 05:57:18;;;;;;;;;;;;;;;;;;5010242;28;19929;-67
2020/12/24 05:59:45;;;;;;;;;;;;;;;;;;5018586;28;19933;-67
2020/12/24 06:02:11;;;;;;;;;;;;;;;;;;5022194;28;19986;-67
2020/12/24 06:04:38;;;;;;;;;;;;;;;;;;5016017;28;19926;-67
2020/12/24 06:07:04;;;;;;;;;;;;;;;;;;5015727;28;20019;-67
2020/12/24 06:09:31;;;;;;;;;;;;;;;;;;5016137;28;19929;-68
2020/12/24 06:11:57;;;;;;;;;;;;;;;;;;5012911;28;19952;-67
2020/12/24 06:14:24;;;;;;;;;;;;;;;;;;5016925;28;20211;-67
2020/12/24 06:16:52;;;;;;;;;;;;;;;;;;5020006;28;20004;-67
2020/12/24 06:19:19;;;;;;;;;;;;;;;;;;5018788;28;20398;-67
2020/12/24 06:21:45;;;;;;;;;;;;;;;;;;5018488;28;19988;-67
2020/12/24 06:24:12;;;;;;;;;;;;;;;;;;5015320;28;19933;-67
2020/12/24 06:26:38;;;;;;;;;;;;;;;;;;5018434;28;19926;-67
2020/12/24 06:29:05;;;;;;;;;;;;;;;;;;5014987;28;19934;-68
2020/12/24 06:31:31;;;;;;;;;;;;;;;;;;5019219;28;19971;-68
2020/12/24 06:33:58;;;;;;;;;;;;;;;;;;5013487;28;19971;-68
2020/12/24 06:36:24;;;;;;;;;;;;;;;;;;5018989;28;19929;-68
2020/12/24 06:38:51;;;;;;;;;;;;;;;;;;5014364;28;19925;-67
2020/12/24 06:41:17;;;;;;;;;;;;;;;;;;5009517;28;19933;-67
2020/12/24 06:43:44;;;;;;;;;;;;;;;;;;5014086;28;19934;-67
2020/12/24 06:46:10;;;;;;;;;;;;;;;;;;5016115;28;19931;-67
2020/12/24 06:48:37;;;;;;;;;;;;;;;;;;5012091;28;19932;-68
2020/12/24 06:51:03;;;;;;;;;;;;;;;;;;5017506;28;20008;-67
2020/12/24 06:53:30;;;;;;;;;;;;;;;;;;5024981;28;19925;-68
2020/12/24 06:55:56;;;;;;;;;;;;;;;;;;5027116;28;19936;-68
2020/12/24 06:58:23;;;;;;;;;;;;;;;;;;5025587;28;20293;-68
2020/12/24 07:00:49;;;;;;;;;;;;;;;;;;5012568;28;19936;-66
2020/12/24 07:03:16;;;;;;;;;;;;;;;;;;5019068;28;20007;-67
2020/12/24 07:05:42;;;;;;;;;;;;;;;;;;5018559;28;19925;-67
2020/12/24 07:08:09;;;;;;;;;;;;;;;;;;5018081;28;19929;-67
2020/12/24 07:10:35;;;;;;;;;;;;;;;;;;5009277;28;19931;-67
2020/12/24 07:13:02;;;;;;;;;;;;;;;;;;5018037;28;19933;-66
2020/12/24 07:15:28;;;;;;;;;;;;;;;;;;5017428;28;20008;-67
2020/12/24 07:17:55;;;;;;;;;;;;;;;;;;5013106;28;19929;-67
2020/12/24 07:20:21;;;;;;;;;;;;;;;;;;5015872;28;20016;-66
2020/12/24 07:22:48;;;;;;;;;;;;;;;;;;5021858;28;19930;-66
2020/12/24 07:25:14;;;;;;;;;;;;;;;;;;5015010;28;19976;-68
2020/12/24 07:27:41;;;;;;;;;;;;;;;;;;5015796;28;19929;-67
2020/12/24 07:30:07;;;;;;;;;;;;;;;;;;5015283;28;19926;-67
2020/12/24 07:32:34;;;;;;;;;;;;;;;;;;5015591;28;20013;-68
2020/12/24 07:35:00;;;;;;;;;;;;;;;;;;5025218;28;20386;-67
2020/12/24 07:37:27;;;;;;;;;;;;;;;;;;5026969;28;19932;-68
2020/12/24 07:39:55;;;;;;;;;;;;;;;;;;5013145;28;20016;-67
2020/12/24 07:42:22;;;;;;;;;;;;;;;;;;5016750;28;19929;-68
2020/12/24 07:44:48;;;;;;;;;;;;;;;;;;5017337;28;19936;-67
2020/12/24 07:47:15;;;;;;;;;;;;;;;;;;5017538;28;20349;-66
2020/12/24 07:49:41;;;;;;;;;;;;;;;;;;5016614;28;20008;-67
2020/12/24 07:52:10;;;;;;;;;;;;;;;;;;5020408;28;19925;-67
2020/12/24 07:54:36;;;;;;;;;;;;;;;;;;5021621;28;19925;-67
2020/12/24 07:57:03;;;;;;;;;;;;;;;;;;5014497;28;19925;-66
2020/12/24 07:59:29;;;;;;;;;;;;;;;;;;5017665;28;19933;-68
2020/12/24 08:01:56;;;;;;;;;;;;;;;;;;5011740;28;19936;-69
2020/12/24 08:04:22;;;;;;;;;;;;;;;;;;5024559;28;19977;-70
2020/12/24 08:06:49;;;;;;;;;;;;;;;;;;5022745;28;19929;-70
2020/12/24 08:09:15;;;;;;;;;;;;;;;;;;5024272;28;19925;-69
2020/12/24 08:11:42;;;;;;;;;;;;;;;;;;5019645;28;20048;-68
2020/12/24 08:14:08;;;;;;;;;;;;;;;;;;5018528;28;19936;-69
2020/12/24 08:16:35;;;;;;;;;;;;;;;;;;5021100;28;19972;-69
2020/12/24 08:19:01;;;;;;;;;;;;;;;;;;5021324;28;19925;-69
2020/12/24 08:21:28;;;;;;;;;;;;;;;;;;5017418;28;19925;-69
2020/12/24 08:23:54;;;;;;;;;;;;;;;;;;5010569;28;19933;-68
2020/12/24 08:26:21;;;;;;;;;;;;;;;;;;5016855;28;20291;-69
2020/12/24 08:28:47;;;;;;;;;;;;;;;;;;5018350;28;19937;-69
2020/12/24 08:31:14;;;;;;;;;;;;;;;;;;5011956;28;19940;-69
2020/12/24 08:33:40;;;;;;;;;;;;;;;;;;5016676;28;19935;-69
2020/12/24 08:36:07;;;;;;;;;;;;;;;;;;5009297;28;19933;-69
2020/12/24 08:38:33;;;;;;;;;;;;;;;;;;5026320;28;19925;-69
2020/12/24 08:41:00;;;;;;;;;;;;;;;;;;5017845;28;19925;-69
2020/12/24 08:43:27;;;;;;;;;;;;;;;;;;5025551;28;20293;-69
2020/12/24 08:45:53;;;;;;;;;;;;;;;;;;5025225;28;20421;-72
2020/12/24 08:48:20;;;;;;;;;;;;;;;;;;5022785;28;20012;-68
2020/12/24 08:50:46;;;;;;;;;;;;;;;;;;5017311;28;19979;-69
2020/12/24 08:53:13;;;;;;;;;;;;;;;;;;5020185;28;19925;-69
2020/12/24 08:55:39;;;;;;;;;;;;;;;;;;5015583;28;19929;-68
2020/12/24 08:58:06;;;;;;;;;;;;;;;;;;5009344;28;19926;-70
2020/12/24 09:00:32;;;;;;;;;;;;;;;;;;5015658;28;20016;-69
2020/12/24 09:02:59;;;;;;;;;;;;;;;;;;5014853;28;20311;-69
2020/12/24 09:05:25;;;;;;;;;;;;;;;;;;5027972;28;20020;-68
2020/12/24 09:07:52;;;;;;;;;;;;;;;;;;5014667;28;19925;-69
2020/12/24 09:10:20;;;;;;;;;;;;;;;;;;5024369;28;19925;-69
2020/12/24 09:12:47;;;;;;;;;;;;;;;;;;5015650;28;20391;-69
2020/12/24 09:15:13;;;;;;;;;;;;;;;;;;5018410;28;19929;-69
2020/12/24 09:17:40;;;;;;;;;;;;;;;;;;5015298;28;20391;-69
2020/12/24 09:20:06;;;;;;;;;;;;;;;;;;5026480;28;19925;-69
2020/12/24 09:22:33;;;;;;;;;;;;;;;;;;5020571;28;20357;-71
2020/12/24 09:24:59;;;;;;;;;;;;;;;;;;5009276;28;20391;-70
2020/12/24 09:27:26;;;;;;;;;;;;;;;;;;5026811;28;19932;-70
2020/12/24 09:29:52;;;;;;;;;;;;;;;;;;5014055;28;19930;-69
2020/12/24 09:32:18;;;;;;;;;;;;;;;;;;5018101;28;19930;-69
2020/12/24 09:34:45;;;;;;;;;;;;;;;;;;5019967;28;19940;-70
2020/12/24 09:37:11;;;;;;;;;;;;;;;;;;5015641;28;20016;-70
2020/12/24 09:39:38;;;;;;;;;;;;;;;;;;5015240;28;20052;-69
2020/12/24 09:42:05;;;;;;;;;;;;;;;;;;5016280;28;19999;-69
2020/12/24 09:44:31;;;;;;;;;;;;;;;;;;5020745;28;19925;-69
2020/12/24 09:46:58;;;;;;;;;;;;;;;;;;5011967;28;19930;-69
2020/12/24 09:49:24;;;;;;;;;;;;;;;;;;5016193;28;19933;-69
2020/12/24 09:51:51;;;;;;;;;;;;;;;;;;5019572;28;19925;-69
2020/12/24 09:54:17;;;;;;;;;;;;;;;;;;5005498;28;20516;-69
2020/12/24 09:56:44;;;;;;;;;;;;;;;;;;5005525;28;21430;-70
2020/12/24 09:59:10;;;;;;;;;;;;;;;;;;5021234;28;19972;-71
2020/12/24 10:01:36;;;;;;;;;;;;;;;;;;5012687;28;19925;-70
2020/12/24 10:04:03;;;;;;;;;;;;;;;;;;5015387;28;19925;-70
2020/12/24 10:06:30;;;;;;;;;;;;;;;;;;5019481;28;19964;-70
2020/12/24 10:08:56;;;;;;;;;;;;;;;;;;5008569;28;19931;-69
2020/12/24 10:11:23;;;;;;;;;;;;;;;;;;5008156;28;20493;-69
2020/12/24 10:13:49;;;;;;;;;;;;;;;;;;5010142;28;20036;-69
2020/12/24 10:16:16;;;;;;;;;;;;;;;;;;5019608;28;20379;-70
2020/12/24 10:18:42;;;;;;;;;;;;;;;;;;5013748;28;20264;-71
2020/12/24 10:21:09;;;;;;;;;;;;;;;;;;5010803;28;20099;-70
2020/12/24 10:23:35;;;;;;;;;;;;;;;;;;5017089;28;19925;-71
2020/12/24 10:26:02;;;;;;;;;;;;;;;;;;5014975;28;19925;-72
2020/12/24 10:28:28;;;;;;;;;;;;;;;;;;5018073;28;20451;-72
2020/12/24 10:30:55;;;;;;;;;;;;;;;;;;5017823;28;20298;-71
2020/12/24 10:33:21;;;;;;;;;;;;;;;;;;5008244;28;20030;-72
2020/12/24 10:35:47;;;;;;;;;;;;;;;;;;5019626;28;19925;-71
2020/12/24 10:38:14;;;;;;;;;;;;;;;;;;5011786;28;20945;-71
2020/12/24 10:40:40;;;;;;;;;;;;;;;;;;5004413;28;19933;-72
2020/12/24 10:43:07;;;;;;;;;;;;;;;;;;5011675;28;19979;-70
2020/12/24 10:45:33;;;;;;;;;;;;;;;;;;5015597;28;20345;-70
2020/12/24 10:48:00;;;;;;;;;;;;;;;;;;5011341;28;20015;-71
2020/12/24 10:50:26;;;;;;;;;;;;;;;;;;5012282;28;19994;-70
2020/12/24 10:52:53;;;;;;;;;;;;;;;;;;5008385;28;19953;-72
2020/12/24 10:55:21;;;;;;;;;;;;;;;;;;5005077;28;20204;-71
2020/12/24 10:57:47;;;;;;;;;;;;;;;;;;5006344;28;20354;-69
2020/12/24 11:00:14;;;;;;;;;;;;;;;;;;5061391;22;20015;-62
2020/12/24 11:02:41;;;;;;;;;;;;;;;;;;5065903;28;19972;-61
2020/12/24 11:05:07;;;;;;;;;;;;;;;;;;5065579;28;19931;-62
2020/12/24 11:07:34;;;;;;;;;;;;;;;;;;5071516;28;19924;-62
2020/12/24 11:10:00;;;;;;;;;;;;;;;;;;5067800;28;19925;-61
2020/12/24 11:12:26;;;;;;;;;;;;;;;;;;5064571;28;19928;-62
2020/12/24 11:14:53;;;;;;;;;;;;;;;;;;5062099;28;19931;-62
2020/12/24 11:17:19;;;;;;;;;;;;;;;;;;5068692;28;20023;-63
2020/12/24 11:19:46;;;;;;;;;;;;;;;;;;5063463;28;19928;-60
2020/12/24 11:22:12;;;;;;;;;;;;;;;;;;5064344;28;19924;-62
2020/12/24 11:24:39;;;;;;;;;;;;;;;;;;5060286;28;19932;-62
2020/12/24 11:27:05;;;;;;;;;;;;;;;;;;5058187;28;19981;-61
2020/12/24 11:29:31;;;;;;;;;;;;;;;;;;5061311;28;19925;-62
2020/12/24 11:31:58;;;;;;;;;;;;;;;;;;5061563;28;19924;-64
2020/12/24 11:34:26;;;;;;;;;;;;;;;;;;5068963;28;19924;-65
2020/12/24 11:36:52;;;;;;;;;;;;;;;;;;5066956;28;19924;-62
2020/12/24 11:39:19;;;;;;;;;;;;;;;;;;5062720;28;19925;-62
2020/12/24 11:41:45;;;;;;;;;;;;;;;;;;5062716;28;19928;-63
2020/12/24 11:44:12;;;;;;;;;;;;;;;;;;5066608;28;20020;-62
2020/12/24 11:46:39;;;;;;;;;;;;;;;;;;5064412;28;19925;-63
2020/12/24 11:49:05;;;;;;;;;;;;;;;;;;5064387;28;19935;-61
2020/12/24 11:51:31;;;;;;;;;;;;;;;;;;5067964;28;19924;-60
2020/12/24 11:53:58;;;;;;;;;;;;;;;;;;5063033;28;19924;-62
2020/12/24 11:56:24;;;;;;;;;;;;;;;;;;5065797;28;19924;-61
2020/12/24 11:58:51;;;;;;;;;;;;;;;;;;5060906;28;19924;-62
2020/12/24 12:01:17;;;;;;;;;;;;;;;;;;5059259;28;19978;-62
2020/12/24 12:03:44;;;;;;;;;;;;;;;;;;5063648;28;20316;-62
2020/12/24 12:06:10;;;;;;;;;;;;;;;;;;5069061;28;19963;-63
2020/12/24 12:08:37;;;;;;;;;;;;;;;;;;5060577;28;20295;-62
2020/12/24 12:11:03;;;;;;;;;;;;;;;;;;5068965;28;20296;-63
2020/12/24 12:13:29;;;;;;;;;;;;;;;;;;5069410;28;20291;-61
2020/12/24 12:15:56;;;;;;;;;;;;;;;;;;5067216;28;19925;-63
2020/12/24 12:18:22;;;;;;;;;;;;;;;;;;5072843;28;19931;-62
2020/12/24 12:20:49;;;;;;;;;;;;;;;;;;5070779;28;19924;-62
2020/12/24 12:23:15;;;;;;;;;;;;;;;;;;5075280;28;20301;-63
2020/12/24 12:25:42;;;;;;;;;;;;;;;;;;5071901;28;20300;-62
2020/12/24 12:28:08;;;;;;;;;;;;;;;;;;5074689;28;20390;-61
2020/12/24 12:30:34;;;;;;;;;;;;;;;;;;5074294;28;20405;-63
2020/12/24 12:33:01;;;;;;;;;;;;;;;;;;5065671;28;20398;-62
2020/12/24 12:35:27;;;;;;;;;;;;;;;;;;5073851;28;19925;-63
2020/12/24 12:37:54;;;;;;;;;;;;;;;;;;5072837;28;19931;-63
2020/12/24 12:40:20;;;;;;;;;;;;;;;;;;5073106;28;19969;-62
2020/12/24 12:42:47;;;;;;;;;;;;;;;;;;5063496;28;20297;-62
2020/12/24 12:45:13;;;;;;;;;;;;;;;;;;5062360;28;20390;-63
2020/12/24 12:47:39;;;;;;;;;;;;;;;;;;5064174;28;20356;-62
2020/12/24 12:50:06;;;;;;;;;;;;;;;;;;5067299;28;19928;-63
2020/12/24 12:52:32;;;;;;;;;;;;;;;;;;5065894;28;19928;-61
2020/12/24 12:54:59;;;;;;;;;;;;;;;;;;5062265;28;19929;-62
2020/12/24 12:57:25;;;;;;;;;;;;;;;;;;5064837;28;20345;-62
2020/12/24 12:59:52;;;;;;;;;;;;;;;;;;5064488;28;19933;-63
2020/12/24 13:02:18;;;;;;;;;;;;;;;;;;5058342;28;19924;-63
2020/12/24 13:04:45;;;;;;;;;;;;;;;;;;5066438;28;20312;-62
2020/12/24 13:07:11;;;;;;;;;;;;;;;;;;5065978;28;20278;-63
2020/12/24 13:09:37;;;;;;;;;;;;;;;;;;5066118;28;20420;-63
2020/12/24 13:12:04;;;;;;;;;;;;;;;;;;5065317;28;20326;-63
2020/12/24 13:14:30;;;;;;;;;;;;;;;;;;5060260;28;19928;-63
2020/12/24 13:16:57;;;;;;;;;;;;;;;;;;5067183;28;20316;-63
2020/12/24 13:19:23;;;;;;;;;;;;;;;;;;5065330;28;19932;-64
2020/12/24 13:21:50;;;;;;;;;;;;;;;;;;5065955;28;20037;-63
2020/12/24 13:24:16;;;;;;;;;;;;;;;;;;5068106;28;19932;-63
2020/12/24 13:26:43;;;;;;;;;;;;;;;;;;5067487;28;19931;-64
2020/12/24 13:29:09;;;;;;;;;;;;;;;;;;5062147;28;19925;-64
2020/12/24 13:31:35;;;;;;;;;;;;;;;;;;5064644;28;19932;-63
2020/12/24 13:34:02;;;;;;;;;;;;;;;;;;5069180;28;19929;-64
2020/12/24 13:36:28;;;;;;;;;;;;;;;;;;5066138;28;19924;-63
2020/12/24 13:38:55;;;;;;;;;;;;;;;;;;5062735;28;19934;-63
2020/12/24 13:41:22;;;;;;;;;;;;;;;;;;5066170;28;20111;-63
2020/12/24 13:43:49;;;;;;;;;;;;;;;;;;5067549;28;20038;-63
2020/12/24 13:46:16;;;;;;;;;;;;;;;;;;5065088;28;20405;-63
2020/12/24 13:48:42;;;;;;;;;;;;;;;;;;5059908;28;20385;-63
2020/12/24 13:51:09;;;;;;;;;;;;;;;;;;5067445;28;20281;-62
2020/12/24 13:53:35;;;;;;;;;;;;;;;;;;5065098;28;19928;-62
2020/12/24 13:56:03;;;;;;;;;;;;;;;;;;5066672;28;20412;-62
2020/12/24 13:58:30;;;;;;;;;;;;;;;;;;5062611;28;20394;-64
2020/12/24 14:00:56;;;;;;;;;;;;;;;;;;5067461;28;20023;-64
2020/12/24 14:03:23;;;;;;;;;;;;;;;;;;5068960;28;20357;-64
2020/12/24 14:05:49;;;;;;;;;;;;;;;;;;5066876;28;20321;-64
2020/12/24 14:08:16;;;;;;;;;;;;;;;;;;5067135;28;20360;-63
2020/12/24 14:10:42;;;;;;;;;;;;;;;;;;5068405;28;19928;-64
2020/12/24 14:13:09;;;;;;;;;;;;;;;;;;5066868;28;20131;-66
2020/12/24 14:15:35;;;;;;;;;;;;;;;;;;5068488;28;19928;-65
2020/12/24 14:18:02;;;;;;;;;;;;;;;;;;5067120;28;19924;-64
2020/12/24 14:20:28;;;;;;;;;;;;;;;;;;5065213;28;19932;-65
2020/12/24 14:22:56;;;;;;;;;;;;;;;;;;5059829;28;19928;-65
2020/12/24 14:25:22;;;;;;;;;;;;;;;;;;5064863;28;19932;-65
2020/12/24 14:27:49;;;;;;;;;;;;;;;;;;5062834;28;19924;-64
2020/12/24 14:30:15;;;;;;;;;;;;;;;;;;5061772;28;19928;-66
2020/12/24 14:32:42;;;;;;;;;;;;;;;;;;5063720;28;19933;-64
2020/12/24 14:35:08;;;;;;;;;;;;;;;;;;5063955;28;20145;-64
2020/12/24 14:37:34;;;;;;;;;;;;;;;;;;5061422;28;20218;-63
2020/12/24 14:40:01;;;;;;;;;;;;;;;;;;5060567;28;19969;-64
2020/12/24 14:42:27;;;;;;;;;;;;;;;;;;5063637;28;19925;-64
2020/12/24 14:44:54;;;;;;;;;;;;;;;;;;5066520;28;19942;-64
2020/12/24 14:47:20;;;;;;;;;;;;;;;;;;5063907;28;19924;-63
2020/12/24 14:49:47;;;;;;;;;;;;;;;;;;5065195;28;19924;-66
2020/12/24 14:52:13;;;;;;;;;;;;;;;;;;5061818;28;21477;-64
2020/12/24 14:54:39;;;;;;;;;;;;;;;;;;5064416;28;19929;-65
2020/12/24 14:57:06;;;;;;;;;;;;;;;;;;5063755;28;19925;-64
2020/12/24 14:59:32;;;;;;;;;;;;;;;;;;5067680;28;19977;-63
2020/12/24 15:01:59;;;;;;;;;;;;;;;;;;5065063;28;20015;-64
2020/12/24 15:04:25;;;;;;;;;;;;;;;;;;5065773;28;20401;-63
2020/12/24 15:06:52;;;;;;;;;;;;;;;;;;5062057;28;19944;-62
2020/12/24 15:09:18;;;;;;;;;;;;;;;;;;5060376;28;19932;-64
2020/12/24 15:11:44;;;;;;;;;;;;;;;;;;5063590;28;19932;-64
2020/12/24 15:14:11;;;;;;;;;;;;;;;;;;5066366;28;19932;-64
2020/12/24 15:16:37;;;;;;;;;;;;;;;;;;5064544;28;19925;-64
2020/12/24 15:19:06;;;;;;;;;;;;;;;;;;5069708;28;20273;-62
2020/12/24 15:21:33;;;;;;;;;;;;;;;;;;5069095;28;19932;-63
2020/12/24 15:23:59;;;;;;;;;;;;;;;;;;5063981;28;19931;-64
2020/12/24 15:26:26;;;;;;;;;;;;;;;;;;5065847;28;20261;-65
2020/12/24 15:28:52;;;;;;;;;;;;;;;;;;5067931;28;19931;-63
2020/12/24 15:31:18;;;;;;;;;;;;;;;;;;5067367;28;19929;-64
2020/12/24 15:33:45;;;;;;;;;;;;;;;;;;5063898;28;19977;-65
2020/12/24 15:36:11;;;;;;;;;;;;;;;;;;5066879;28;19933;-64
2020/12/24 15:38:38;;;;;;;;;;;;;;;;;;5061535;28;19931;-64
2020/12/24 15:41:04;;;;;;;;;;;;;;;;;;5062238;28;20031;-64
2020/12/24 15:43:31;;;;;;;;;;;;;;;;;;5059042;28;20399;-64
2020/12/24 15:45:57;;;;;;;;;;;;;;;;;;5063704;28;19929;-64
2020/12/24 15:48:23;;;;;;;;;;;;;;;;;;5056644;28;19932;-62
2020/12/24 15:50:50;;;;;;;;;;;;;;;;;;5062277;28;19924;-63
2020/12/24 15:53:16;;;;;;;;;;;;;;;;;;5067874;28;19943;-63
2020/12/24 15:55:43;;;;;;;;;;;;;;;;;;5076174;28;19935;-61
2020/12/24 15:58:09;;;;;;;;;;;;;;;;;;5070960;28;19931;-62
2020/12/24 16:00:36;;;;;;;;;;;;;;;;;;5068204;28;19931;-63
2020/12/24 16:03:02;;;;;;;;;;;;;;;;;;5065207;28;19931;-63
2020/12/24 16:05:30;;;;;;;;;;;;;;;;;;5068227;28;20015;-63
2020/12/24 16:07:56;;;;;;;;;;;;;;;;;;5057889;28;19932;-63
2020/12/24 16:10:23;;;;;;;;;;;;;;;;;;5074972;28;19925;-63
2020/12/24 16:12:49;;;;;;;;;;;;;;;;;;5066499;28;20183;-63
2020/12/24 16:15:15;;;;;;;;;;;;;;;;;;5065383;28;19930;-63
2020/12/24 16:17:42;;;;;;;;;;;;;;;;;;5067529;28;20284;-63
2020/12/24 16:20:08;;;;;;;;;;;;;;;;;;5067897;28;20366;-63
2020/12/24 16:22:35;;;;;;;;;;;;;;;;;;5058067;28;19925;-62
2020/12/24 16:25:01;;;;;;;;;;;;;;;;;;5064597;28;19969;-66
2020/12/24 16:27:28;;;;;;;;;;;;;;;;;;5067406;28;20317;-61
2020/12/24 16:29:54;;;;;;;;;;;;;;;;;;5063908;28;19989;-62
2020/12/24 16:32:20;;;;;;;;;;;;;;;;;;5072064;28;20398;-62
2020/12/24 16:34:47;;;;;;;;;;;;;;;;;;5059493;28;20370;-63
2020/12/24 16:37:13;;;;;;;;;;;;;;;;;;5061302;28;19929;-62
2020/12/24 16:39:40;;;;;;;;;;;;;;;;;;5075051;28;20346;-62